sensor_id;sensor_type;location;lat;lon;timestamp;pressure;altitude;pressure_sealevel;temperature;humidity
706;BME280;21234;48.690;9.016;2024-02-14T00:00:19;96518.00;;;2.72;99.03
706;BME280;21234;48.690;9.016;2024-02-14T00:02:46;96526.19;;;2.63;98.57
706;BME280;21234;48.690;9.016;2024-02-14T00:05:14;96527.03;;;2.64;99.34
706;BME280;21234;48.690;9.016;2024-02-14T00:07:41;96532.78;;;2.61;100.00
706;BME280;21234;48.690;9.016;2024-02-14T00:10:08;96532.56;;;2.62;99.14
706;BME280;21234;48.690;9.016;2024-02-14T00:12:36;96523.16;;;2.73;99.38
706;BME280;21234;48.690;9.016;2024-02-14T00:15:04;96533.09;;;2.73;98.86
706;BME280;21234;48.690;9.016;2024-02-14T00:17:31;96528.16;;;2.76;98.52
706;BME280;21234;48.690;9.016;2024-02-14T00:19:58;96530.91;;;2.83;98.88
706;BME280;21234;48.690;9.016;2024-02-14T00:22:25;96533.44;;;2.91;99.56
706;BME280;21234;48.690;9.016;2024-02-14T00:24:52;96534.28;;;2.98;99.12
706;BME280;21234;48.690;9.016;2024-02-14T00:27:18;96534.47;;;2.96;99.26
706;BME280;21234;48.690;9.016;2024-02-14T00:29:46;96536.44;;;3.09;98.15
706;BME280;21234;48.690;9.016;2024-02-14T00:32:13;96528.56;;;3.08;97.69
706;BME280;21234;48.690;9.016;2024-02-14T00:34:40;96522.03;;;3.17;96.55
706;BME280;21234;48.690;9.016;2024-02-14T00:37:07;96528.88;;;3.26;96.27
706;BME280;21234;48.690;9.016;2024-02-14T00:39:34;96525.38;;;3.25;96.07
706;BME280;21234;48.690;9.016;2024-02-14T00:42:00;96523.75;;;3.31;98.01
706;BME280;21234;48.690;9.016;2024-02-14T00:44:27;96532.69;;;3.38;98.24
706;BME280;21234;48.690;9.016;2024-02-14T00:46:57;96528.97;;;3.39;99.30
706;BME280;21234;48.690;9.016;2024-02-14T00:49:25;96531.44;;;3.41;99.37
706;BME280;21234;48.690;9.016;2024-02-14T00:51:51;96537.41;;;3.36;99.69
706;BME280;21234;48.690;9.016;2024-02-14T00:54:18;96543.81;;;3.35;98.72
706;BME280;21234;48.690;9.016;2024-02-14T00:56:45;96534.72;;;3.36;98.83
706;BME280;21234;48.690;9.016;2024-02-14T00:59:11;96532.91;;;3.43;99.48
706;BME280;21234;48.690;9.016;2024-02-14T01:01:38;96539.75;;;3.46;98.95
706;BME280;21234;48.690;9.016;2024-02-14T01:04:06;96532.28;;;3.41;98.40
706;BME280;21234;48.690;9.016;2024-02-14T01:06:33;96529.03;;;3.52;100.00
706;BME280;21234;48.690;9.016;2024-02-14T01:09:00;96542.44;;;3.46;100.00
706;BME280;21234;48.690;9.016;2024-02-14T01:11:26;96545.59;;;3.56;100.00
706;BME280;21234;48.690;9.016;2024-02-14T01:13:53;96545.59;;;3.62;100.00
706;BME280;21234;48.690;9.016;2024-02-14T01:16:20;96546.34;;;3.43;100.00
706;BME280;21234;48.690;9.016;2024-02-14T01:18:47;96544.25;;;3.38;100.00
706;BME280;21234;48.690;9.016;2024-02-14T01:21:15;96543.78;;;3.28;100.00
706;BME280;21234;48.690;9.016;2024-02-14T01:23:42;96549.00;;;3.36;100.00
706;BME280;21234;48.690;9.016;2024-02-14T01:26:08;96542.59;;;3.37;100.00
706;BME280;21234;48.690;9.016;2024-02-14T01:28:35;96549.00;;;3.36;100.00
706;BME280;21234;48.690;9.016;2024-02-14T01:31:02;96537.06;;;3.46;100.00
706;BME280;21234;48.690;9.016;2024-02-14T01:33:28;96530.91;;;3.52;100.00
706;BME280;21234;48.690;9.016;2024-02-14T01:35:56;96521.56;;;3.48;100.00
706;BME280;21234;48.690;9.016;2024-02-14T01:38:24;96522.00;;;3.58;100.00
706;BME280;21234;48.690;9.016;2024-02-14T01:40:51;96522.84;;;3.52;100.00
706;BME280;21234;48.690;9.016;2024-02-14T01:43:19;96525.72;;;3.50;100.00
706;BME280;21234;48.690;9.016;2024-02-14T01:45:46;96525.31;;;3.53;100.00
706;BME280;21234;48.690;9.016;2024-02-14T01:48:13;96528.81;;;3.47;100.00
706;BME280;21234;48.690;9.016;2024-02-14T01:50:44;96523.22;;;3.49;100.00
706;BME280;21234;48.690;9.016;2024-02-14T01:53:11;96518.53;;;3.57;100.00
706;BME280;21234;48.690;9.016;2024-02-14T01:55:40;96513.94;;;3.51;100.00
706;BME280;21234;48.690;9.016;2024-02-14T01:58:07;96516.88;;;3.56;100.00
706;BME280;21234;48.690;9.016;2024-02-14T02:00:34;96522.63;;;3.60;100.00
706;BME280;21234;48.690;9.016;2024-02-14T02:03:01;96519.13;;;3.59;100.00
706;BME280;21234;48.690;9.016;2024-02-14T02:05:28;96509.00;;;3.55;100.00
706;BME280;21234;48.690;9.016;2024-02-14T02:07:54;96502.59;;;3.56;100.00
706;BME280;21234;48.690;9.016;2024-02-14T02:10:21;96503.81;;;3.60;100.00
706;BME280;21234;48.690;9.016;2024-02-14T02:12:57;96502.59;;;3.62;100.00
706;BME280;21234;48.690;9.016;2024-02-14T02:15:24;96503.00;;;3.59;100.00
706;BME280;21234;48.690;9.016;2024-02-14T02:17:52;96499.94;;;3.69;100.00
706;BME280;21234;48.690;9.016;2024-02-14T02:20:18;96500.53;;;3.64;100.00
706;BME280;21234;48.690;9.016;2024-02-14T02:22:47;96500.97;;;3.68;100.00
706;BME280;21234;48.690;9.016;2024-02-14T02:25:15;96505.13;;;3.70;100.00
706;BME280;21234;48.690;9.016;2024-02-14T02:27:41;96512.34;;;3.70;100.00
706;BME280;21234;48.690;9.016;2024-02-14T02:30:08;96506.16;;;3.76;100.00
706;BME280;21234;48.690;9.016;2024-02-14T02:32:35;96512.81;;;3.80;100.00
706;BME280;21234;48.690;9.016;2024-02-14T02:35:03;96494.63;;;3.82;100.00
706;BME280;21234;48.690;9.016;2024-02-14T02:37:30;96493.34;;;3.78;100.00
706;BME280;21234;48.690;9.016;2024-02-14T02:39:58;96484.22;;;3.72;100.00
706;BME280;21234;48.690;9.016;2024-02-14T02:42:25;96482.38;;;3.73;100.00
706;BME280;21234;48.690;9.016;2024-02-14T02:44:52;96472.66;;;3.72;100.00
706;BME280;21234;48.690;9.016;2024-02-14T02:47:18;96473.47;;;3.72;100.00
706;BME280;21234;48.690;9.016;2024-02-14T02:49:45;96470.16;;;3.70;100.00
706;BME280;21234;48.690;9.016;2024-02-14T02:52:12;96458.97;;;3.67;100.00
706;BME280;21234;48.690;9.016;2024-02-14T02:54:40;96456.91;;;3.69;100.00
706;BME280;21234;48.690;9.016;2024-02-14T02:57:10;96466.00;;;3.68;100.00
706;BME280;21234;48.690;9.016;2024-02-14T02:59:37;96451.31;;;3.64;100.00
706;BME280;21234;48.690;9.016;2024-02-14T03:02:07;96459.38;;;3.64;100.00
706;BME280;21234;48.690;9.016;2024-02-14T03:04:33;96450.28;;;3.65;100.00
706;BME280;21234;48.690;9.016;2024-02-14T03:07:00;96452.97;;;3.65;100.00
706;BME280;21234;48.690;9.016;2024-02-14T03:09:33;96454.03;;;3.70;100.00
706;BME280;21234;48.690;9.016;2024-02-14T03:12:00;96457.53;;;3.71;100.00
706;BME280;21234;48.690;9.016;2024-02-14T03:14:29;96456.53;;;3.79;100.00
706;BME280;21234;48.690;9.016;2024-02-14T03:16:58;96454.06;;;3.77;100.00
706;BME280;21234;48.690;9.016;2024-02-14T03:19:24;96460.06;;;3.79;100.00
706;BME280;21234;48.690;9.016;2024-02-14T03:21:52;96469.38;;;3.83;100.00
706;BME280;21234;48.690;9.016;2024-02-14T03:24:19;96478.25;;;3.77;100.00
706;BME280;21234;48.690;9.016;2024-02-14T03:26:46;96483.22;;;3.80;100.00
706;BME280;21234;48.690;9.016;2024-02-14T03:29:12;96499.38;;;3.80;100.00
706;BME280;21234;48.690;9.016;2024-02-14T03:31:43;96495.41;;;3.76;100.00
706;BME280;21234;48.690;9.016;2024-02-14T03:34:10;96494.38;;;3.77;100.00
706;BME280;21234;48.690;9.016;2024-02-14T03:36:37;96488.16;;;3.70;100.00
706;BME280;21234;48.690;9.016;2024-02-14T03:39:03;96497.03;;;3.70;100.00
706;BME280;21234;48.690;9.016;2024-02-14T03:41:32;96493.53;;;3.70;100.00
706;BME280;21234;48.690;9.016;2024-02-14T03:43:58;96493.53;;;3.70;100.00
706;BME280;21234;48.690;9.016;2024-02-14T03:46:27;96496.19;;;3.63;100.00
706;BME280;21234;48.690;9.016;2024-02-14T03:48:55;96499.91;;;3.56;100.00
706;BME280;21234;48.690;9.016;2024-02-14T03:51:23;96504.44;;;3.55;100.00
706;BME280;21234;48.690;9.016;2024-02-14T03:53:49;96515.41;;;3.54;100.00
706;BME280;21234;48.690;9.016;2024-02-14T03:56:16;96508.81;;;3.56;100.00
706;BME280;21234;48.690;9.016;2024-02-14T03:58:43;96506.94;;;3.63;100.00
706;BME280;21234;48.690;9.016;2024-02-14T04:01:11;96502.22;;;3.72;100.00
706;BME280;21234;48.690;9.016;2024-02-14T04:03:38;96509.69;;;3.77;100.00
706;BME280;21234;48.690;9.016;2024-02-14T04:06:06;96497.28;;;3.76;100.00
706;BME280;21234;48.690;9.016;2024-02-14T04:08:33;96498.13;;;3.83;100.00
706;BME280;21234;48.690;9.016;2024-02-14T04:11:00;96494.84;;;3.87;100.00
706;BME280;21234;48.690;9.016;2024-02-14T04:13:27;96504.56;;;3.95;100.00
706;BME280;21234;48.690;9.016;2024-02-14T04:15:53;96501.03;;;3.94;99.66
706;BME280;21234;48.690;9.016;2024-02-14T04:18:20;96497.09;;;3.90;99.53
706;BME280;21234;48.690;9.016;2024-02-14T04:20:47;96499.78;;;3.90;99.60
706;BME280;21234;48.690;9.016;2024-02-14T04:23:15;96493.19;;;3.86;99.63
706;BME280;21234;48.690;9.016;2024-02-14T04:25:42;96499.19;;;3.88;98.73
706;BME280;21234;48.690;9.016;2024-02-14T04:28:08;96500.00;;;3.89;98.51
706;BME280;21234;48.690;9.016;2024-02-14T04:30:37;96503.94;;;3.86;98.05
706;BME280;21234;48.690;9.016;2024-02-14T04:33:04;96509.13;;;3.88;98.46
706;BME280;21234;48.690;9.016;2024-02-14T04:35:31;96509.94;;;3.88;98.44
706;BME280;21234;48.690;9.016;2024-02-14T04:37:59;96516.75;;;3.84;99.37
706;BME280;21234;48.690;9.016;2024-02-14T04:40:27;96512.41;;;3.83;99.86
706;BME280;21234;48.690;9.016;2024-02-14T04:42:54;96505.59;;;3.87;98.97
706;BME280;21234;48.690;9.016;2024-02-14T04:45:21;96509.13;;;3.88;98.46
706;BME280;21234;48.690;9.016;2024-02-14T04:47:47;96515.91;;;3.90;98.93
706;BME280;21234;48.690;9.016;2024-02-14T04:50:14;96525.25;;;3.88;97.32
706;BME280;21234;48.690;9.016;2024-02-14T04:52:41;96529.97;;;3.79;98.35
706;BME280;21234;48.690;9.016;2024-02-14T04:55:08;96528.72;;;3.75;98.78
706;BME280;21234;48.690;9.016;2024-02-14T04:57:36;96527.47;;;3.78;99.17
706;BME280;21234;48.690;9.016;2024-02-14T05:00:04;96532.69;;;3.86;99.89
706;BME280;21234;48.690;9.016;2024-02-14T05:02:31;96532.50;;;3.87;100.00
706;BME280;21234;48.690;9.016;2024-02-14T05:04:58;96525.06;;;3.89;99.94
706;BME280;21234;48.690;9.016;2024-02-14T05:07:24;96521.31;;;3.90;99.18
706;BME280;21234;48.690;9.016;2024-02-14T05:09:51;96531.25;;;3.96;97.90
706;BME280;21234;48.690;9.016;2024-02-14T05:12:20;96522.38;;;4.02;97.07
706;BME280;21234;48.690;9.016;2024-02-14T05:14:48;96530.47;;;4.09;96.68
706;BME280;21234;48.690;9.016;2024-02-14T05:17:15;96521.38;;;4.10;97.28
706;BME280;21234;48.690;9.016;2024-02-14T05:19:42;96522.03;;;4.19;97.83
706;BME280;21234;48.690;9.016;2024-02-14T05:22:08;96520.34;;;4.18;97.32
706;BME280;21234;48.690;9.016;2024-02-14T05:24:35;96528.44;;;4.18;97.02
706;BME280;21234;48.690;9.016;2024-02-14T05:27:03;96510.41;;;4.25;96.06
706;BME280;21234;48.690;9.016;2024-02-14T05:29:30;96517.88;;;4.29;96.22
706;BME280;21234;48.690;9.016;2024-02-14T05:31:58;96509.63;;;4.37;96.26
706;BME280;21234;48.690;9.016;2024-02-14T05:34:25;96513.56;;;4.42;95.62
706;BME280;21234;48.690;9.016;2024-02-14T05:36:51;96510.88;;;4.48;95.85
706;BME280;21234;48.690;9.016;2024-02-14T05:39:18;96512.13;;;4.52;95.66
706;BME280;21234;48.690;9.016;2024-02-14T05:41:45;96515.41;;;4.61;94.21
706;BME280;21234;48.690;9.016;2024-02-14T05:44:12;96508.59;;;4.65;95.42
706;BME280;21234;48.690;9.016;2024-02-14T05:46:38;96513.56;;;4.68;94.04
706;BME280;21234;48.690;9.016;2024-02-14T05:49:07;96509.41;;;4.72;95.27
706;BME280;21234;48.690;9.016;2024-02-14T05:51:34;96515.63;;;4.72;93.00
706;BME280;21234;48.690;9.016;2024-02-14T05:54:00;96505.91;;;4.78;91.69
706;BME280;21234;48.690;9.016;2024-02-14T05:56:27;96510.66;;;4.83;90.01
706;BME280;21234;48.690;9.016;2024-02-14T05:58:54;96509.63;;;4.84;89.96
706;BME280;21234;48.690;9.016;2024-02-14T06:01:20;96521.44;;;4.83;90.13
706;BME280;21234;48.690;9.016;2024-02-14T06:03:47;96519.78;;;4.82;90.25
706;BME280;21234;48.690;9.016;2024-02-14T06:06:15;96525.59;;;4.79;90.51
706;BME280;21234;48.690;9.016;2024-02-14T06:08:42;96522.25;;;4.77;90.32
706;BME280;21234;48.690;9.016;2024-02-14T06:11:09;96529.72;;;4.75;89.26
706;BME280;21234;48.690;9.016;2024-02-14T06:13:37;96534.06;;;4.76;88.58
706;BME280;21234;48.690;9.016;2024-02-14T06:16:05;96523.31;;;4.76;88.58
706;BME280;21234;48.690;9.016;2024-02-14T06:18:32;96529.50;;;4.69;88.28
706;BME280;21234;48.690;9.016;2024-02-14T06:20:59;96525.16;;;4.68;88.63
706;BME280;21234;48.690;9.016;2024-02-14T06:23:27;96530.75;;;4.67;88.91
706;BME280;21234;48.690;9.016;2024-02-14T06:25:54;96546.06;;;4.60;87.88
706;BME280;21234;48.690;9.016;2024-02-14T06:28:21;96554.34;;;4.58;88.08
706;BME280;21234;48.690;9.016;2024-02-14T06:30:48;96549.59;;;4.60;88.20
706;BME280;21234;48.690;9.016;2024-02-14T06:33:14;96543.78;;;4.57;88.71
706;BME280;21234;48.690;9.016;2024-02-14T06:35:41;96542.38;;;4.54;89.46
706;BME280;21234;48.690;9.016;2024-02-14T06:38:08;96549.78;;;4.59;89.93
706;BME280;21234;48.690;9.016;2024-02-14T06:40:36;96550.00;;;4.57;90.03
706;BME280;21234;48.690;9.016;2024-02-14T06:43:03;96558.06;;;4.57;89.53
706;BME280;21234;48.690;9.016;2024-02-14T06:45:32;96558.50;;;4.61;90.51
706;BME280;21234;48.690;9.016;2024-02-14T06:47:59;96547.94;;;4.59;90.68
706;BME280;21234;48.690;9.016;2024-02-14T06:50:25;96545.06;;;4.54;90.93
706;BME280;21234;48.690;9.016;2024-02-14T06:52:53;96547.13;;;4.52;91.23
706;BME280;21234;48.690;9.016;2024-02-14T06:55:23;96543.59;;;4.52;91.23
706;BME280;21234;48.690;9.016;2024-02-14T06:57:51;96547.09;;;4.46;91.09
706;BME280;21234;48.690;9.016;2024-02-14T07:00:18;96538.59;;;4.42;91.55
706;BME280;21234;48.690;9.016;2024-02-14T07:02:45;96548.75;;;4.40;91.84
706;BME280;21234;48.690;9.016;2024-02-14T07:05:13;96555.78;;;4.41;92.15
706;BME280;21234;48.690;9.016;2024-02-14T07:07:40;96550.00;;;4.44;92.30
706;BME280;21234;48.690;9.016;2024-02-14T07:10:08;96545.03;;;4.48;92.46
706;BME280;21234;48.690;9.016;2024-02-14T07:12:35;96544.84;;;4.49;92.33
706;BME280;21234;48.690;9.016;2024-02-14T07:15:05;96545.88;;;4.55;92.48
706;BME280;21234;48.690;9.016;2024-02-14T07:17:32;96560.16;;;4.62;92.34
706;BME280;21234;48.690;9.016;2024-02-14T07:19:58;96558.94;;;4.71;92.41
706;BME280;21234;48.690;9.016;2024-02-14T07:22:25;96565.16;;;4.78;92.33
706;BME280;21234;48.690;9.016;2024-02-14T07:24:52;96570.09;;;4.88;92.36
706;BME280;21234;48.690;9.016;2024-02-14T07:27:19;96566.38;;;5.02;90.15
706;BME280;21234;48.690;9.016;2024-02-14T07:29:47;96567.44;;;5.14;90.51
706;BME280;21234;48.690;9.016;2024-02-14T07:32:15;96566.56;;;5.20;90.35
706;BME280;21234;48.690;9.016;2024-02-14T07:34:42;96570.72;;;5.29;90.43
706;BME280;21234;48.690;9.016;2024-02-14T07:37:09;96566.56;;;5.33;90.12
706;BME280;21234;48.690;9.016;2024-02-14T07:39:35;96565.94;;;5.38;90.86
706;BME280;21234;48.690;9.016;2024-02-14T07:42:02;96566.34;;;5.42;91.05
706;BME280;21234;48.690;9.016;2024-02-14T07:44:30;96572.34;;;5.44;90.58
706;BME280;21234;48.690;9.016;2024-02-14T07:46:57;96566.09;;;5.56;93.56
706;BME280;21234;48.690;9.016;2024-02-14T07:49:25;96576.44;;;5.59;93.81
706;BME280;21234;48.690;9.016;2024-02-14T07:51:52;96581.44;;;5.62;92.71
706;BME280;21234;48.690;9.016;2024-02-14T07:54:18;96581.81;;;5.72;94.78
706;BME280;21234;48.690;9.016;2024-02-14T07:56:45;96590.94;;;5.85;96.29
706;BME280;21234;48.690;9.016;2024-02-14T07:59:12;96579.88;;;5.86;96.17
706;BME280;21234;48.690;9.016;2024-02-14T08:01:39;96589.28;;;5.84;92.94
706;BME280;21234;48.690;9.016;2024-02-14T08:04:05;96600.03;;;5.90;93.32
706;BME280;21234;48.690;9.016;2024-02-14T08:06:34;96592.56;;;5.92;93.01
706;BME280;21234;48.690;9.016;2024-02-14T08:09:01;96600.03;;;5.97;91.10
706;BME280;21234;48.690;9.016;2024-02-14T08:11:31;96599.38;;;6.01;92.18
706;BME280;21234;48.690;9.016;2024-02-14T08:13:58;96608.94;;;6.04;89.99
706;BME280;21234;48.690;9.016;2024-02-14T08:16:25;96603.50;;;6.11;90.79
706;BME280;21234;48.690;9.016;2024-02-14T08:18:51;96608.50;;;6.14;88.88
706;BME280;21234;48.690;9.016;2024-02-14T08:21:24;96604.06;;;6.26;91.56
706;BME280;21234;48.690;9.016;2024-02-14T08:23:52;96603.81;;;6.34;91.27
706;BME280;21234;48.690;9.016;2024-02-14T08:26:18;96596.91;;;6.45;90.50
706;BME280;21234;48.690;9.016;2024-02-14T08:28:45;96605.97;;;6.57;88.41
706;BME280;21234;48.690;9.016;2024-02-14T08:31:12;96613.59;;;6.66;87.95
706;BME280;21234;48.690;9.016;2024-02-14T08:33:39;96608.13;;;6.80;85.52
706;BME280;21234;48.690;9.016;2024-02-14T08:36:06;96611.16;;;6.90;85.30
706;BME280;21234;48.690;9.016;2024-02-14T08:38:34;96610.06;;;6.97;84.35
706;BME280;21234;48.690;9.016;2024-02-14T08:41:02;96611.28;;;7.01;83.58
706;BME280;21234;48.690;9.016;2024-02-14T08:43:29;96619.19;;;7.03;84.25
706;BME280;21234;48.690;9.016;2024-02-14T08:45:56;96614.78;;;7.08;84.08
706;BME280;21234;48.690;9.016;2024-02-14T08:48:23;96608.50;;;7.15;84.67
706;BME280;21234;48.690;9.016;2024-02-14T08:50:52;96601.56;;;7.19;83.80
706;BME280;21234;48.690;9.016;2024-02-14T08:53:19;96601.53;;;7.25;84.05
706;BME280;21234;48.690;9.016;2024-02-14T08:55:46;96603.94;;;7.33;84.05
706;BME280;21234;48.690;9.016;2024-02-14T08:58:15;96607.88;;;7.37;84.05
706;BME280;21234;48.690;9.016;2024-02-14T09:00:42;96615.50;;;7.47;83.98
706;BME280;21234;48.690;9.016;2024-02-14T09:03:09;96613.16;;;7.51;83.31
706;BME280;21234;48.690;9.016;2024-02-14T09:05:35;96610.44;;;7.51;82.78
706;BME280;21234;48.690;9.016;2024-02-14T09:08:04;96620.59;;;7.55;83.62
706;BME280;21234;48.690;9.016;2024-02-14T09:10:31;96621.66;;;7.54;81.82
706;BME280;21234;48.690;9.016;2024-02-14T09:12:57;96620.81;;;7.54;81.00
706;BME280;21234;48.690;9.016;2024-02-14T09:15:26;96620.38;;;7.57;81.98
706;BME280;21234;48.690;9.016;2024-02-14T09:17:52;96615.28;;;7.67;82.75
706;BME280;21234;48.690;9.016;2024-02-14T09:20:19;96611.09;;;7.71;82.02
706;BME280;21234;48.690;9.016;2024-02-14T09:22:46;96616.44;;;7.78;82.48
706;BME280;21234;48.690;9.016;2024-02-14T09:25:13;96612.06;;;7.77;81.64
706;BME280;21234;48.690;9.016;2024-02-14T09:27:40;96614.56;;;7.78;82.68
706;BME280;21234;48.690;9.016;2024-02-14T09:30:09;96617.78;;;7.87;83.32
706;BME280;21234;48.690;9.016;2024-02-14T09:32:37;96613.56;;;7.91;84.19
706;BME280;21234;48.690;9.016;2024-02-14T09:35:05;96613.28;;;7.99;84.64
706;BME280;21234;48.690;9.016;2024-02-14T09:37:32;96606.75;;;8.06;85.29
706;BME280;21234;48.690;9.016;2024-02-14T09:39:59;96606.19;;;8.16;85.17
706;BME280;21234;48.690;9.016;2024-02-14T09:42:29;96607.63;;;8.19;85.53
706;BME280;21234;48.690;9.016;2024-02-14T09:44:59;96603.88;;;8.20;87.28
706;BME280;21234;48.690;9.016;2024-02-14T09:47:28;96607.16;;;8.22;86.13
706;BME280;21234;48.690;9.016;2024-02-14T09:49:59;96614.63;;;8.26;86.60
706;BME280;21234;48.690;9.016;2024-02-14T09:52:26;96602.69;;;8.34;87.26
706;BME280;21234;48.690;9.016;2024-02-14T09:54:53;96613.91;;;8.37;86.60
706;BME280;21234;48.690;9.016;2024-02-14T09:57:21;96610.16;;;8.50;87.01
706;BME280;21234;48.690;9.016;2024-02-14T09:59:49;96601.13;;;8.56;86.91
706;BME280;21234;48.690;9.016;2024-02-14T10:02:17;96607.47;;;8.50;86.39
706;BME280;21234;48.690;9.016;2024-02-14T10:04:43;96599.94;;;8.52;86.32
706;BME280;21234;48.690;9.016;2024-02-14T10:07:11;96596.09;;;8.60;87.52
706;BME280;21234;48.690;9.016;2024-02-14T10:09:42;96603.66;;;8.69;87.56
706;BME280;21234;48.690;9.016;2024-02-14T10:12:09;96600.97;;;8.69;86.47
706;BME280;21234;48.690;9.016;2024-02-14T10:14:35;96593.44;;;8.71;87.44
706;BME280;21234;48.690;9.016;2024-02-14T10:17:02;96595.91;;;8.73;87.99
706;BME280;21234;48.690;9.016;2024-02-14T10:19:29;96601.09;;;8.74;87.45
706;BME280;21234;48.690;9.016;2024-02-14T10:21:56;96596.78;;;8.97;87.58
706;BME280;21234;48.690;9.016;2024-02-14T10:24:26;96588.22;;;9.23;87.04
706;BME280;21234;48.690;9.016;2024-02-14T10:26:53;96600.06;;;9.40;86.00
706;BME280;21234;48.690;9.016;2024-02-14T10:29:23;96590.03;;;9.64;85.41
706;BME280;21234;48.690;9.016;2024-02-14T10:31:50;96591.44;;;9.67;85.40
706;BME280;21234;48.690;9.016;2024-02-14T10:34:18;96590.94;;;9.82;87.32
706;BME280;21234;48.690;9.016;2024-02-14T10:36:45;96593.47;;;9.71;86.07
706;BME280;21234;48.690;9.016;2024-02-14T10:39:13;96586.84;;;9.67;86.60
706;BME280;21234;48.690;9.016;2024-02-14T10:41:42;96594.97;;;9.79;87.28
706;BME280;21234;48.690;9.016;2024-02-14T10:44:09;96589.06;;;9.82;87.41
706;BME280;21234;48.690;9.016;2024-02-14T10:46:39;96575.84;;;9.86;87.92
706;BME280;21234;48.690;9.016;2024-02-14T10:49:07;96588.53;;;10.08;87.75
706;BME280;21234;48.690;9.016;2024-02-14T10:51:38;96582.16;;;10.15;86.86
706;BME280;21234;48.690;9.016;2024-02-14T10:54:10;96582.28;;;10.31;87.04
706;BME280;21234;48.690;9.016;2024-02-14T10:56:39;96576.72;;;10.38;86.04
706;BME280;21234;48.690;9.016;2024-02-14T10:59:09;96585.16;;;10.53;85.53
706;BME280;21234;48.690;9.016;2024-02-14T11:01:39;96596.88;;;10.42;84.91
706;BME280;21234;48.690;9.016;2024-02-14T11:04:06;96592.13;;;10.49;85.23
706;BME280;21234;48.690;9.016;2024-02-14T11:06:44;96608.97;;;10.34;85.28
706;BME280;21234;48.690;9.016;2024-02-14T11:09:12;96611.34;;;10.19;85.60
706;BME280;21234;48.690;9.016;2024-02-14T11:11:40;96620.69;;;10.23;86.38
706;BME280;21234;48.690;9.016;2024-02-14T11:14:09;96618.44;;;10.20;86.00
706;BME280;21234;48.690;9.016;2024-02-14T11:16:38;96614.41;;;10.34;85.90
706;BME280;21234;48.690;9.016;2024-02-14T11:19:09;96619.25;;;10.32;85.86
706;BME280;21234;48.690;9.016;2024-02-14T11:21:36;96621.38;;;10.30;85.69
706;BME280;21234;48.690;9.016;2024-02-14T11:24:05;96622.19;;;10.07;86.24
706;BME280;21234;48.690;9.016;2024-02-14T11:26:38;96625.97;;;10.18;88.07
706;BME280;21234;48.690;9.016;2024-02-14T11:29:05;96628.94;;;10.28;87.82
706;BME280;21234;48.690;9.016;2024-02-14T11:31:34;96627.19;;;10.22;87.15
706;BME280;21234;48.690;9.016;2024-02-14T11:34:04;96629.66;;;10.24;88.45
706;BME280;21234;48.690;9.016;2024-02-14T11:36:32;96624.34;;;10.29;88.90
706;BME280;21234;48.690;9.016;2024-02-14T11:39:02;96624.22;;;10.12;88.52
706;BME280;21234;48.690;9.016;2024-02-14T11:41:29;96630.63;;;9.94;89.18
706;BME280;21234;48.690;9.016;2024-02-14T11:43:56;96635.00;;;9.95;91.11
706;BME280;21234;48.690;9.016;2024-02-14T11:46:29;96633.44;;;9.99;90.53
706;BME280;21234;48.690;9.016;2024-02-14T11:48:58;96623.66;;;9.98;90.04
706;BME280;21234;48.690;9.016;2024-02-14T11:51:26;96630.34;;;10.07;90.80
706;BME280;21234;48.690;9.016;2024-02-14T11:53:53;96616.06;;;10.12;90.35
706;BME280;21234;48.690;9.016;2024-02-14T11:56:21;96619.38;;;10.26;90.08
706;BME280;21234;48.690;9.016;2024-02-14T11:58:47;96612.22;;;10.48;89.86
706;BME280;21234;48.690;9.016;2024-02-14T12:01:16;96608.91;;;10.58;87.79
706;BME280;21234;48.690;9.016;2024-02-14T12:03:43;96614.69;;;10.61;86.51
706;BME280;21234;48.690;9.016;2024-02-14T12:06:12;96615.25;;;10.63;86.79
706;BME280;21234;48.690;9.016;2024-02-14T12:08:41;96610.50;;;10.99;86.34
706;BME280;21234;48.690;9.016;2024-02-14T12:11:08;96614.91;;;11.33;85.59
706;BME280;21234;48.690;9.016;2024-02-14T12:13:35;96618.84;;;11.26;83.37
706;BME280;21234;48.690;9.016;2024-02-14T12:16:03;96616.53;;;11.18;83.07
706;BME280;21234;48.690;9.016;2024-02-14T12:18:32;96620.38;;;11.05;84.15
706;BME280;21234;48.690;9.016;2024-02-14T12:21:06;96621.53;;;10.92;85.02
706;BME280;21234;48.690;9.016;2024-02-14T12:23:35;96617.97;;;10.92;85.01
706;BME280;21234;48.690;9.016;2024-02-14T12:26:03;96619.03;;;10.91;84.95
706;BME280;21234;48.690;9.016;2024-02-14T12:28:31;96618.06;;;10.97;85.61
706;BME280;21234;48.690;9.016;2024-02-14T12:30:58;96615.44;;;11.02;85.27
706;BME280;21234;48.690;9.016;2024-02-14T12:33:26;96614.63;;;11.01;85.04
706;BME280;21234;48.690;9.016;2024-02-14T12:35:53;96614.13;;;11.04;85.51
706;BME280;21234;48.690;9.016;2024-02-14T12:38:21;96601.84;;;11.02;85.64
706;BME280;21234;48.690;9.016;2024-02-14T12:40:50;96593.50;;;10.92;84.83
706;BME280;21234;48.690;9.016;2024-02-14T12:43:19;96602.53;;;10.81;85.33
706;BME280;21234;48.690;9.016;2024-02-14T12:45:46;96589.28;;;10.84;86.38
706;BME280;21234;48.690;9.016;2024-02-14T12:48:13;96593.00;;;10.95;86.45
706;BME280;21234;48.690;9.016;2024-02-14T12:50:40;96591.94;;;10.96;86.76
706;BME280;21234;48.690;9.016;2024-02-14T12:53:13;96587.47;;;11.06;86.16
706;BME280;21234;48.690;9.016;2024-02-14T12:55:39;96590.88;;;11.14;84.45
706;BME280;21234;48.690;9.016;2024-02-14T12:58:08;96591.13;;;11.12;84.20
706;BME280;21234;48.690;9.016;2024-02-14T13:00:35;96588.44;;;11.29;85.12
706;BME280;21234;48.690;9.016;2024-02-14T13:03:03;96587.25;;;11.41;83.90
706;BME280;21234;48.690;9.016;2024-02-14T13:05:30;96584.13;;;11.50;82.78
706;BME280;21234;48.690;9.016;2024-02-14T13:07:57;96579.34;;;11.57;83.25
706;BME280;21234;48.690;9.016;2024-02-14T13:10:23;96583.88;;;11.51;83.08
706;BME280;21234;48.690;9.016;2024-02-14T13:12:50;96588.19;;;11.64;83.67
706;BME280;21234;48.690;9.016;2024-02-14T13:15:18;96574.06;;;11.67;82.80
706;BME280;21234;48.690;9.016;2024-02-14T13:17:45;96584.44;;;11.70;82.94
706;BME280;21234;48.690;9.016;2024-02-14T13:20:14;96580.31;;;11.84;82.97
706;BME280;21234;48.690;9.016;2024-02-14T13:22:41;96580.31;;;11.84;84.15
706;BME280;21234;48.690;9.016;2024-02-14T13:25:08;96565.13;;;11.88;82.49
706;BME280;21234;48.690;9.016;2024-02-14T13:27:35;96567.78;;;11.83;82.76